sensor_id;sensor_type;location;lat;lon;timestamp;pressure;altitude;pressure_sealevel;temperature;humidity
64211;BME280;50528;48.514;14.394;2023-03-11T00:00:32;91874.92;;;2.87;79.00
64211;BME280;50528;48.514;14.394;2023-03-11T00:01:26;91898.49;;;2.84;78.77
64211;BME280;50528;48.514;14.394;2023-03-11T00:01:59;91877.27;;;2.83;78.86
64211;BME280;50528;48.514;14.394;2023-03-11T00:02:33;91902.93;;;2.88;78.70
64211;BME280;50528;48.514;14.394;2023-03-11T00:03:08;91896.63;;;2.95;77.87
64211;BME280;50528;48.514;14.394;2023-03-11T00:03:42;91893.20;;;2.91;78.08
64211;BME280;50528;48.514;14.394;2023-03-11T00:04:15;91879.98;;;2.85;78.27
64211;BME280;50528;48.514;14.394;2023-03-11T00:04:49;91882.73;;;2.90;78.45
64211;BME280;50528;48.514;14.394;2023-03-11T00:05:28;91899.48;;;2.92;78.56
64211;BME280;50528;48.514;14.394;2023-03-11T00:06:02;91884.99;;;2.90;78.56
64211;BME280;50528;48.514;14.394;2023-03-11T00:06:36;91887.95;;;2.89;78.47
64211;BME280;50528;48.514;14.394;2023-03-11T00:07:10;91889.30;;;2.89;78.62
64211;BME280;50528;48.514;14.394;2023-03-11T00:07:44;91881.36;;;2.97;78.26
64211;BME280;50528;48.514;14.394;2023-03-11T00:08:20;91909.97;;;3.04;77.73
64211;BME280;50528;48.514;14.394;2023-03-11T00:08:54;91884.66;;;3.07;77.18
64211;BME280;50528;48.514;14.394;2023-03-11T00:09:28;91876.37;;;3.01;77.50
64211;BME280;50528;48.514;14.394;2023-03-11T00:10:02;91857.10;;;2.99;77.62
64211;BME280;50528;48.514;14.394;2023-03-11T00:10:39;91854.14;;;2.99;77.51
64211;BME280;50528;48.514;14.394;2023-03-11T00:11:13;91879.80;;;2.97;77.20
64211;BME280;50528;48.514;14.394;2023-03-11T00:11:46;91878.70;;;3.01;76.54
64211;BME280;50528;48.514;14.394;2023-03-11T00:12:20;91871.70;;;3.03;76.44
64211;BME280;50528;48.514;14.394;2023-03-11T00:12:54;91878.70;;;3.01;76.32
64211;BME280;50528;48.514;14.394;2023-03-11T00:13:28;91898.23;;;2.99;76.70
64211;BME280;50528;48.514;14.394;2023-03-11T00:14:02;91911.61;;;3.03;76.45
64211;BME280;50528;48.514;14.394;2023-03-11T00:14:36;91919.95;;;3.00;76.46
64211;BME280;50528;48.514;14.394;2023-03-11T00:15:10;91936.11;;;2.97;76.78
64211;BME280;50528;48.514;14.394;2023-03-11T00:15:46;91909.39;;;3.04;76.57
64211;BME280;50528;48.514;14.394;2023-03-11T00:16:20;91922.39;;;2.93;77.19
64211;BME280;50528;48.514;14.394;2023-03-11T00:16:54;91935.04;;;2.86;77.54
64211;BME280;50528;48.514;14.394;2023-03-11T00:17:28;91928.59;;;2.85;78.12
64211;BME280;50528;48.514;14.394;2023-03-11T00:18:02;91916.84;;;2.87;78.23
64211;BME280;50528;48.514;14.394;2023-03-11T00:18:36;91956.95;;;2.95;75.89
64211;BME280;50528;48.514;14.394;2023-03-11T00:19:09;91929.30;;;2.88;75.46
64211;BME280;50528;48.514;14.394;2023-03-11T00:19:43;91906.48;;;2.82;75.47
64211;BME280;50528;48.514;14.394;2023-03-11T00:20:31;91955.36;;;2.84;74.81
64211;BME280;50528;48.514;14.394;2023-03-11T00:21:04;91941.48;;;2.70;75.27
64211;BME280;50528;48.514;14.394;2023-03-11T00:21:39;91939.48;;;2.67;75.74
64211;BME280;50528;48.514;14.394;2023-03-11T00:22:13;91952.33;;;2.60;75.98
64211;BME280;50528;48.514;14.394;2023-03-11T00:22:47;91956.98;;;2.59;76.23
64211;BME280;50528;48.514;14.394;2023-03-11T00:23:21;91949.81;;;2.57;75.72
64211;BME280;50528;48.514;14.394;2023-03-11T00:23:54;91943.14;;;2.53;76.06
64211;BME280;50528;48.514;14.394;2023-03-11T00:24:28;91962.94;;;2.52;76.25
64211;BME280;50528;48.514;14.394;2023-03-11T00:25:02;91961.55;;;2.53;76.17
64211;BME280;50528;48.514;14.394;2023-03-11T00:25:37;91937.24;;;2.50;75.43
64211;BME280;50528;48.514;14.394;2023-03-11T00:26:11;91945.00;;;2.48;75.84
64211;BME280;50528;48.514;14.394;2023-03-11T00:26:45;91985.33;;;2.49;75.55
64211;BME280;50528;48.514;14.394;2023-03-11T00:27:19;91972.80;;;2.45;74.59
64211;BME280;50528;48.514;14.394;2023-03-11T00:27:52;91975.61;;;2.46;74.17
64211;BME280;50528;48.514;14.394;2023-03-11T00:28:26;91973.90;;;2.46;74.04
64211;BME280;50528;48.514;14.394;2023-03-11T00:29:02;91963.38;;;2.41;74.44
64211;BME280;50528;48.514;14.394;2023-03-11T00:29:36;91961.05;;;2.36;74.73
64211;BME280;50528;48.514;14.394;2023-03-11T00:30:12;91979.99;;;2.35;75.07
64211;BME280;50528;48.514;14.394;2023-03-11T00:30:46;91972.46;;;2.37;74.30
64211;BME280;50528;48.514;14.394;2023-03-11T00:31:20;91997.11;;;2.35;74.22
64211;BME280;50528;48.514;14.394;2023-03-11T00:31:53;91983.80;;;2.30;74.05
64211;BME280;50528;48.514;14.394;2023-03-11T00:32:27;91985.91;;;2.30;73.98
64211;BME280;50528;48.514;14.394;2023-03-11T00:33:01;91972.77;;;2.27;74.51
64211;BME280;50528;48.514;14.394;2023-03-11T00:33:34;91994.05;;;2.26;74.68
64211;BME280;50528;48.514;14.394;2023-03-11T00:34:08;91982.93;;;2.25;74.81
64211;BME280;50528;48.514;14.394;2023-03-11T00:34:42;91990.70;;;2.24;75.02
64211;BME280;50528;48.514;14.394;2023-03-11T00:35:18;92012.06;;;2.24;74.72
64211;BME280;50528;48.514;14.394;2023-03-11T00:35:52;91992.39;;;2.26;74.76
64211;BME280;50528;48.514;14.394;2023-03-11T00:36:30;91998.39;;;2.25;74.79
64211;BME280;50528;48.514;14.394;2023-03-11T00:37:05;92016.41;;;2.20;74.54
64211;BME280;50528;48.514;14.394;2023-03-11T00:37:39;92011.98;;;2.21;74.18
64211;BME280;50528;48.514;14.394;2023-03-11T00:38:14;91998.31;;;2.19;74.11
64211;BME280;50528;48.514;14.394;2023-03-11T00:38:49;92018.48;;;2.14;74.46
64211;BME280;50528;48.514;14.394;2023-03-11T00:39:23;92021.59;;;2.23;73.29
64211;BME280;50528;48.514;14.394;2023-03-11T00:39:58;92005.73;;;2.20;73.41
64211;BME280;50528;48.514;14.394;2023-03-11T00:40:33;92024.85;;;2.18;73.64
64211;BME280;50528;48.514;14.394;2023-03-11T00:41:08;92032.21;;;2.15;74.06
64211;BME280;50528;48.514;14.394;2023-03-11T00:41:41;92021.92;;;2.12;73.10
64211;BME280;50528;48.514;14.394;2023-03-11T00:42:15;92035.77;;;2.13;73.72
64211;BME280;50528;48.514;14.394;2023-03-11T00:42:49;92014.61;;;2.09;74.11
64211;BME280;50528;48.514;14.394;2023-03-11T00:43:22;92030.94;;;2.09;74.52
64211;BME280;50528;48.514;14.394;2023-03-11T00:43:56;92037.70;;;2.11;74.53
64211;BME280;50528;48.514;14.394;2023-03-11T00:44:29;92018.61;;;2.14;73.41
64211;BME280;50528;48.514;14.394;2023-03-11T00:45:04;92017.23;;;2.19;73.17
64211;BME280;50528;48.514;14.394;2023-03-11T00:45:38;92012.91;;;2.14;73.49
64211;BME280;50528;48.514;14.394;2023-03-11T00:46:11;92014.10;;;2.09;73.99
64211;BME280;50528;48.514;14.394;2023-03-11T00:46:45;91998.52;;;2.17;73.41
64211;BME280;50528;48.514;14.394;2023-03-11T00:47:19;92005.34;;;2.13;73.79
64211;BME280;50528;48.514;14.394;2023-03-11T00:47:53;92014.41;;;2.16;73.43
64211;BME280;50528;48.514;14.394;2023-03-11T00:48:27;91995.81;;;2.14;73.18
64211;BME280;50528;48.514;14.394;2023-03-11T00:49:01;92007.81;;;2.12;73.10
64211;BME280;50528;48.514;14.394;2023-03-11T00:49:34;92001.77;;;2.13;73.06
64211;BME280;50528;48.514;14.394;2023-03-11T00:50:13;92004.91;;;2.12;73.25
64211;BME280;50528;48.514;14.394;2023-03-11T00:50:47;92015.75;;;2.04;73.87
64211;BME280;50528;48.514;14.394;2023-03-11T00:51:21;92021.44;;;2.03;73.94
64211;BME280;50528;48.514;14.394;2023-03-11T00:51:54;92026.05;;;2.03;74.02
64211;BME280;50528;48.514;14.394;2023-03-11T00:52:28;92011.91;;;2.03;74.01
64211;BME280;50528;48.514;14.394;2023-03-11T00:53:03;92013.80;;;2.02;74.23
64211;BME280;50528;48.514;14.394;2023-03-11T00:53:37;92024.16;;;1.98;74.38
64211;BME280;50528;48.514;14.394;2023-03-11T00:54:11;92035.45;;;2.04;73.81
64211;BME280;50528;48.514;14.394;2023-03-11T00:54:45;92039.41;;;2.03;73.91
64211;BME280;50528;48.514;14.394;2023-03-11T00:55:25;92032.21;;;1.99;73.96
64211;BME280;50528;48.514;14.394;2023-03-11T00:56:06;92024.41;;;2.00;74.19
64211;BME280;50528;48.514;14.394;2023-03-11T00:56:40;92033.94;;;2.05;73.54
64211;BME280;50528;48.514;14.394;2023-03-11T00:57:14;92049.20;;;2.05;73.61
64211;BME280;50528;48.514;14.394;2023-03-11T00:57:53;92045.15;;;2.02;73.48
64211;BME280;50528;48.514;14.394;2023-03-11T00:58:29;92036.86;;;1.95;73.82
64211;BME280;50528;48.514;14.394;2023-03-11T00:59:03;92056.98;;;1.96;73.50
64211;BME280;50528;48.514;14.394;2023-03-11T00:59:36;92048.10;;;1.94;73.30
64211;BME280;50528;48.514;14.394;2023-03-11T01:00:15;92043.35;;;1.99;72.63
64211;BME280;50528;48.514;14.394;2023-03-11T01:00:49;92050.13;;;1.95;73.03
64211;BME280;50528;48.514;14.394;2023-03-11T01:01:22;92057.02;;;1.99;72.81
64211;BME280;50528;48.514;14.394;2023-03-11T01:01:57;92053.49;;;2.06;71.97
64211;BME280;50528;48.514;14.394;2023-03-11T01:02:30;92054.61;;;1.96;72.35
64211;BME280;50528;48.514;14.394;2023-03-11T01:03:04;92050.15;;;1.96;72.60
64211;BME280;50528;48.514;14.394;2023-03-11T01:03:38;92054.64;;;2.03;71.64
64211;BME280;50528;48.514;14.394;2023-03-11T01:04:12;92050.55;;;1.96;72.36
64211;BME280;50528;48.514;14.394;2023-03-11T01:04:45;92050.31;;;1.93;72.67
64211;BME280;50528;48.514;14.394;2023-03-11T01:05:21;92050.84;;;1.93;72.45
64211;BME280;50528;48.514;14.394;2023-03-11T01:05:55;92045.36;;;1.91;72.64
64211;BME280;50528;48.514;14.394;2023-03-11T01:06:30;92067.53;;;1.91;71.93
64211;BME280;50528;48.514;14.394;2023-03-11T01:07:17;92072.24;;;1.84;72.14
64211;BME280;50528;48.514;14.394;2023-03-11T01:07:51;92076.44;;;1.84;72.49
64211;BME280;50528;48.514;14.394;2023-03-11T01:08:25;92080.17;;;1.87;72.02
64211;BME280;50528;48.514;14.394;2023-03-11T01:08:59;92092.38;;;1.81;72.59
64211;BME280;50528;48.514;14.394;2023-03-11T01:09:34;92081.27;;;1.80;72.46
64211;BME280;50528;48.514;14.394;2023-03-11T01:10:10;92094.25;;;1.89;71.01
64211;BME280;50528;48.514;14.394;2023-03-11T01:10:47;92090.46;;;1.90;70.61
64211;BME280;50528;48.514;14.394;2023-03-11T01:11:25;92101.40;;;1.90;70.80
64211;BME280;50528;48.514;14.394;2023-03-11T01:11:58;92067.56;;;1.82;71.78
64211;BME280;50528;48.514;14.394;2023-03-11T01:12:33;92095.05;;;1.81;71.72
64211;BME280;50528;48.514;14.394;2023-03-11T01:13:07;92089.67;;;1.79;71.63
64211;BME280;50528;48.514;14.394;2023-03-11T01:13:40;92092.52;;;1.78;71.68
64211;BME280;50528;48.514;14.394;2023-03-11T01:14:14;92108.42;;;1.89;70.81
64211;BME280;50528;48.514;14.394;2023-03-11T01:14:49;92099.32;;;1.82;70.72
64211;BME280;50528;48.514;14.394;2023-03-11T01:15:26;92098.45;;;1.77;71.26
64211;BME280;50528;48.514;14.394;2023-03-11T01:16:00;92093.71;;;1.72;71.96
64211;BME280;50528;48.514;14.394;2023-03-11T01:16:34;92097.63;;;1.70;72.18
64211;BME280;50528;48.514;14.394;2023-03-11T01:17:08;92087.27;;;1.71;72.39
64211;BME280;50528;48.514;14.394;2023-03-11T01:17:41;92112.01;;;1.73;72.05
64211;BME280;50528;48.514;14.394;2023-03-11T01:18:15;92107.61;;;1.73;71.49
64211;BME280;50528;48.514;14.394;2023-03-11T01:18:48;92084.94;;;1.74;71.40
64211;BME280;50528;48.514;14.394;2023-03-11T01:19:22;92099.31;;;1.72;71.78
64211;BME280;50528;48.514;14.394;2023-03-11T01:19:55;92100.73;;;1.76;71.09
64211;BME280;50528;48.514;14.394;2023-03-11T01:20:29;92091.98;;;1.74;71.36
64211;BME280;50528;48.514;14.394;2023-03-11T01:21:03;92094.55;;;1.73;71.37
64211;BME280;50528;48.514;14.394;2023-03-11T01:21:39;92085.27;;;1.68;71.56
64211;BME280;50528;48.514;14.394;2023-03-11T01:22:13;92118.45;;;1.71;71.52
64211;BME280;50528;48.514;14.394;2023-03-11T01:22:46;92104.68;;;1.71;71.46
64211;BME280;50528;48.514;14.394;2023-03-11T01:23:21;92100.27;;;1.67;71.87
64211;BME280;50528;48.514;14.394;2023-03-11T01:23:55;92102.75;;;1.70;70.58
64211;BME280;50528;48.514;14.394;2023-03-11T01:24:29;92091.60;;;1.63;71.13
64211;BME280;50528;48.514;14.394;2023-03-11T01:25:06;92105.76;;;1.64;71.37
64211;BME280;50528;48.514;14.394;2023-03-11T01:25:40;92088.80;;;1.64;71.25
64211;BME280;50528;48.514;14.394;2023-03-11T01:26:13;92099.68;;;1.63;70.92
64211;BME280;50528;48.514;14.394;2023-03-11T01:26:47;92107.17;;;1.61;70.86
64211;BME280;50528;48.514;14.394;2023-03-11T01:27:22;92106.58;;;1.63;70.92
64211;BME280;50528;48.514;14.394;2023-03-11T01:27:56;92094.10;;;1.60;71.21
64211;BME280;50528;48.514;14.394;2023-03-11T01:28:30;92103.58;;;1.64;70.41
64211;BME280;50528;48.514;14.394;2023-03-11T01:29:03;92114.59;;;1.68;68.94
64211;BME280;50528;48.514;14.394;2023-03-11T01:29:37;92098.16;;;1.62;69.30
64211;BME280;50528;48.514;14.394;2023-03-11T01:30:14;92107.48;;;1.57;69.82
64211;BME280;50528;48.514;14.394;2023-03-11T01:30:50;92109.09;;;1.52;70.29
64211;BME280;50528;48.514;14.394;2023-03-11T01:31:25;92116.64;;;1.51;70.05
64211;BME280;50528;48.514;14.394;2023-03-11T01:31:59;92094.17;;;1.52;69.97
64211;BME280;50528;48.514;14.394;2023-03-11T01:32:34;92089.74;;;1.40;70.32
64211;BME280;50528;48.514;14.394;2023-03-11T01:33:13;92107.25;;;1.48;70.73
64211;BME280;50528;48.514;14.394;2023-03-11T01:33:47;92094.74;;;1.45;71.08
64211;BME280;50528;48.514;14.394;2023-03-11T01:34:21;92098.39;;;1.44;71.43
64211;BME280;50528;48.514;14.394;2023-03-11T01:34:54;92107.14;;;1.60;69.24
64211;BME280;50528;48.514;14.394;2023-03-11T01:35:29;92096.86;;;1.48;69.45
64211;BME280;50528;48.514;14.394;2023-03-11T01:36:03;92117.04;;;1.57;69.15
64211;BME280;50528;48.514;14.394;2023-03-11T01:36:36;92110.95;;;1.65;68.93
64211;BME280;50528;48.514;14.394;2023-03-11T01:37:12;92106.98;;;1.66;68.01
64211;BME280;50528;48.514;14.394;2023-03-11T01:37:47;92116.75;;;1.55;68.54
64211;BME280;50528;48.514;14.394;2023-03-11T01:38:20;92112.89;;;1.53;69.14
64211;BME280;50528;48.514;14.394;2023-03-11T01:38:54;92109.56;;;1.46;69.72
64211;BME280;50528;48.514;14.394;2023-03-11T01:39:28;92080.05;;;1.49;70.02
64211;BME280;50528;48.514;14.394;2023-03-11T01:40:02;92108.27;;;1.50;69.44
64211;BME280;50528;48.514;14.394;2023-03-11T01:40:38;92073.54;;;1.47;68.69
64211;BME280;50528;48.514;14.394;2023-03-11T01:41:15;92101.25;;;1.42;69.20
64211;BME280;50528;48.514;14.394;2023-03-11T01:41:48;92111.10;;;1.45;69.36
64211;BME280;50528;48.514;14.394;2023-03-11T01:42:22;92122.59;;;1.45;69.28
64211;BME280;50528;48.514;14.394;2023-03-11T01:42:57;92116.92;;;1.46;68.86
64211;BME280;50528;48.514;14.394;2023-03-11T01:44:24;92129.80;;;1.43;68.31
64211;BME280;50528;48.514;14.394;2023-03-11T01:44:58;92117.67;;;1.43;68.21
64211;BME280;50528;48.514;14.394;2023-03-11T01:46:01;92109.56;;;1.41;68.49
64211;BME280;50528;48.514;14.394;2023-03-11T01:47:36;92128.92;;;1.25;69.59
64211;BME280;50528;48.514;14.394;2023-03-11T01:48:10;92139.80;;;1.32;69.31
64211;BME280;50528;48.514;14.394;2023-03-11T01:48:47;92140.63;;;1.37;68.59
64211;BME280;50528;48.514;14.394;2023-03-11T01:49:21;92125.51;;;1.40;68.07
64211;BME280;50528;48.514;14.394;2023-03-11T01:49:55;92119.17;;;1.36;68.87
64211;BME280;50528;48.514;14.394;2023-03-11T01:50:34;92128.00;;;1.34;69.25
64211;BME280;50528;48.514;14.394;2023-03-11T01:51:09;92134.48;;;1.32;69.32
64211;BME280;50528;48.514;14.394;2023-03-11T01:51:45;92133.42;;;1.37;68.25
64211;BME280;50528;48.514;14.394;2023-03-11T01:52:21;92132.38;;;1.31;68.55
64211;BME280;50528;48.514;14.394;2023-03-11T01:52:56;92132.79;;;1.25;68.97
64211;BME280;50528;48.514;14.394;2023-03-11T01:53:29;92118.02;;;1.22;69.51
64211;BME280;50528;48.514;14.394;2023-03-11T01:54:06;92108.95;;;1.25;69.47
64211;BME280;50528;48.514;14.394;2023-03-11T01:54:43;92128.77;;;1.28;69.10
64211;BME280;50528;48.514;14.394;2023-03-11T01:55:17;92125.50;;;1.28;68.84
64211;BME280;50528;48.514;14.394;2023-03-11T01:55:51;92125.47;;;1.29;68.66
64211;BME280;50528;48.514;14.394;2023-03-11T01:56:26;92125.58;;;1.30;68.15
64211;BME280;50528;48.514;14.394;2023-03-11T01:57:05;92128.42;;;1.23;68.40
64211;BME280;50528;48.514;14.394;2023-03-11T01:57:41;92132.69;;;1.30;68.35
64211;BME280;50528;48.514;14.394;2023-03-11T01:58:21;92148.81;;;1.29;68.29
64211;BME280;50528;48.514;14.394;2023-03-11T01:58:57;92142.55;;;1.33;66.63
64211;BME280;50528;48.514;14.394;2023-03-11T01:59:42;92138.48;;;1.31;66.75
64211;BME280;50528;48.514;14.394;2023-03-11T02:00:17;92120.34;;;1.26;67.42
64211;BME280;50528;48.514;14.394;2023-03-11T02:00:53;92163.58;;;1.30;66.72
64211;BME280;50528;48.514;14.394;2023-03-11T02:01:28;92154.30;;;1.45;65.18
64211;BME280;50528;48.514;14.394;2023-03-11T02:02:21;92134.09;;;1.34;65.85
64211;BME280;50528;48.514;14.394;2023-03-11T02:02:59;92139.52;;;1.22;66.29
64211;BME280;50528;48.514;14.394;2023-03-11T02:03:41;92128.50;;;1.19;66.77
64211;BME280;50528;48.514;14.394;2023-03-11T02:04:25;92140.10;;;1.14;66.90
64211;BME280;50528;48.514;14.394;2023-03-11T02:05:00;92140.06;;;1.06;66.91
64211;BME280;50528;48.514;14.394;2023-03-11T02:05:39;92142.28;;;1.11;67.10
64211;BME280;50528;48.514;14.394;2023-03-11T02:06:22;92144.35;;;1.09;67.70
64211;BME280;50528;48.514;14.394;2023-03-11T02:06:56;92148.95;;;1.14;67.23
64211;BME280;50528;48.514;14.394;2023-03-11T02:07:30;92149.68;;;1.17;66.09
64211;BME280;50528;48.514;14.394;2023-03-11T02:08:05;92150.19;;;1.19;65.67
64211;BME280;50528;48.514;14.394;2023-03-11T02:08:42;92138.22;;;1.13;66.08
64211;BME280;50528;48.514;14.394;2023-03-11T02:09:18;92130.39;;;1.12;66.55
64211;BME280;50528;48.514;14.394;2023-03-11T02:09:57;92149.23;;;1.12;66.55
64211;BME280;50528;48.514;14.394;2023-03-11T02:10:31;92158.27;;;1.14;66.15
64211;BME280;50528;48.514;14.394;2023-03-11T02:11:15;92157.95;;;1.14;66.30
64211;BME280;50528;48.514;14.394;2023-03-11T02:12:03;92139.29;;;0.90;66.98
64211;BME280;50528;48.514;14.394;2023-03-11T02:12:47;92153.69;;;1.04;66.01
64211;BME280;50528;48.514;14.394;2023-03-11T02:13:32;92158.86;;;1.02;66.66
64211;BME280;50528;48.514;14.394;2023-03-11T02:14:13;92158.48;;;1.03;66.46
64211;BME280;50528;48.514;14.394;2023-03-11T02:14:58;92164.20;;;1.02;66.38
64211;BME280;50528;48.514;14.394;2023-03-11T02:15:50;92156.43;;;0.99;66.78
64211;BME280;50528;48.514;14.394;2023-03-11T02:16:30;92153.60;;;1.00;66.70
64211;BME280;50528;48.514;14.394;2023-03-11T02:17:08;92167.50;;;0.94;67.20
64211;BME280;50528;48.514;14.394;2023-03-11T02:17:42;92167.61;;;0.95;67.20
64211;BME280;50528;48.514;14.394;2023-03-11T02:18:17;92174.81;;;0.95;67.30
64211;BME280;50528;48.514;14.394;2023-03-11T02:18:52;92155.52;;;0.97;67.27
64211;BME280;50528;48.514;14.394;2023-03-11T02:20:28;92171.20;;;1.00;66.27
64211;BME280;50528;48.514;14.394;2023-03-11T02:21:49;92155.33;;;0.94;66.41
64211;BME280;50528;48.514;14.394;2023-03-11T02:22:23;92174.69;;;0.93;66.63
64211;BME280;50528;48.514;14.394;2023-03-11T02:22:59;92171.54;;;0.91;66.79
64211;BME280;50528;48.514;14.394;2023-03-11T02:23:58;92169.11;;;0.95;66.67
64211;BME280;50528;48.514;14.394;2023-03-11T02:26:21;92178.83;;;0.86;66.50
64211;BME280;50528;48.514;14.394;2023-03-11T02:27:00;92174.41;;;0.90;64.40
64211;BME280;50528;48.514;14.394;2023-03-11T02:27:38;92175.20;;;0.89;65.03
64211;BME280;50528;48.514;14.394;2023-03-11T02:28:14;92176.71;;;0.87;65.48
64211;BME280;50528;48.514;14.394;2023-03-11T02:28:49;92171.14;;;0.87;65.45
64211;BME280;50528;48.514;14.394;2023-03-11T02:29:26;92177.20;;;0.88;65.48
64211;BME280;50528;48.514;14.394;2023-03-11T02:30:01;92162.67;;;0.87;65.68
64211;BME280;50528;48.514;14.394;2023-03-11T02:30:39;92168.44;;;0.89;65.61
64211;BME280;50528;48.514;14.394;2023-03-11T02:31:13;92171.13;;;0.89;64.95
64211;BME280;50528;48.514;14.394;2023-03-11T02:31:48;92168.22;;;0.96;64.04
64211;BME280;50528;48.514;14.394;2023-03-11T02:32:22;92172.16;;;0.92;64.12
64211;BME280;50528;48.514;14.394;2023-03-11T02:32:56;92181.41;;;0.93;64.72
64211;BME280;50528;48.514;14.394;2023-03-11T02:33:33;92172.30;;;0.93;63.91
64211;BME280;50528;48.514;14.394;2023-03-11T02:34:24;92166.32;;;0.92;63.43
64211;BME280;50528;48.514;14.394;2023-03-11T02:34:58;92169.86;;;0.88;63.93
64211;BME280;50528;48.514;14.394;2023-03-11T02:35:33;92166.73;;;0.87;64.19
64211;BME280;50528;48.514;14.394;2023-03-11T02:36:34;92170.46;;;0.85;64.10
64211;BME280;50528;48.514;14.394;2023-03-11T02:37:14;92163.64;;;0.84;63.75
64211;BME280;50528;48.514;14.394;2023-03-11T02:37:53;92169.80;;;0.82;63.80
64211;BME280;50528;48.514;14.394;2023-03-11T02:38:26;92174.00;;;0.83;63.81
64211;BME280;50528;48.514;14.394;2023-03-11T02:39:00;92173.35;;;0.84;63.89
64211;BME280;50528;48.514;14.394;2023-03-11T02:41:00;92174.55;;;0.81;62.41
64211;BME280;50528;48.514;14.394;2023-03-11T02:41:38;92170.09;;;0.84;63.02
64211;BME280;50528;48.514;14.394;2023-03-11T02:42:27;92169.20;;;0.83;63.17
64211;BME280;50528;48.514;14.394;2023-03-11T02:43:05;92162.58;;;0.82;61.99
64211;BME280;50528;48.514;14.394;2023-03-11T02:43:44;92171.56;;;0.79;62.20
64211;BME280;50528;48.514;14.394;2023-03-11T02:44:19;92164.66;;;0.78;62.72
64211;BME280;50528;48.514;14.394;2023-03-11T02:45:14;92167.23;;;0.88;61.95
64211;BME280;50528;48.514;14.394;2023-03-11T02:45:49;92166.00;;;0.83;61.48
64211;BME280;50528;48.514;14.394;2023-03-11T02:46:24;92168.23;;;0.84;61.92
64211;BME280;50528;48.514;14.394;2023-03-11T02:46:58;92165.27;;;0.82;61.74
64211;BME280;50528;48.514;14.394;2023-03-11T02:47:35;92161.64;;;0.77;62.29
64211;BME280;50528;48.514;14.394;2023-03-11T02:48:11;92161.77;;;0.74;62.76
64211;BME280;50528;48.514;14.394;2023-03-11T02:48:46;92173.64;;;0.79;61.51
64211;BME280;50528;48.514;14.394;2023-03-11T02:50:42;92166.10;;;0.63;62.15
64211;BME280;50528;48.514;14.394;2023-03-11T02:51:16;92159.81;;;0.69;60.72
64211;BME280;50528;48.514;14.394;2023-03-11T02:51:50;92163.70;;;0.71;61.16
64211;BME280;50528;48.514;14.394;2023-03-11T02:52:27;92170.29;;;0.70;60.56
64211;BME280;50528;48.514;14.394;2023-03-11T02:53:00;92141.95;;;0.66;60.35
64211;BME280;50528;48.514;14.394;2023-03-11T02:53:38;92165.83;;;0.65;61.23
64211;BME280;50528;48.514;14.394;2023-03-11T02:54:13;92173.36;;;0.60;61.58
64211;BME280;50528;48.514;14.394;2023-03-11T02:54:47;92177.27;;;0.66;61.48
64211;BME280;50528;48.514;14.394;2023-03-11T02:55:21;92174.29;;;0.66;60.95
64211;BME280;50528;48.514;14.394;2023-03-11T02:55:54;92180.48;;;0.66;60.52
64211;BME280;50528;48.514;14.394;2023-03-11T02:56:28;92174.51;;;0.67;60.00
64211;BME280;50528;48.514;14.394;2023-03-11T02:57:02;92189.11;;;0.68;59.84
64211;BME280;50528;48.514;14.394;2023-03-11T02:57:35;92176.86;;;0.66;60.08
64211;BME280;50528;48.514;14.394;2023-03-11T02:58:10;92179.14;;;0.66;59.25
64211;BME280;50528;48.514;14.394;2023-03-11T02:58:43;92193.27;;;0.62;59.88
64211;BME280;50528;48.514;14.394;2023-03-11T02:59:17;92173.89;;;0.64;59.19
64211;BME280;50528;48.514;14.394;2023-03-11T02:59:51;92176.71;;;0.61;59.90
64211;BME280;50528;48.514;14.394;2023-03-11T03:00:24;92176.64;;;0.60;60.64
64211;BME280;50528;48.514;14.394;2023-03-11T03:01:02;92188.39;;;0.56;60.86
64211;BME280;50528;48.514;14.394;2023-03-11T03:01:36;92191.73;;;0.63;58.99
64211;BME280;50528;48.514;14.394;2023-03-11T03:02:10;92177.94;;;0.60;59.78
64211;BME280;50528;48.514;14.394;2023-03-11T03:02:44;92197.02;;;0.58;59.65
64211;BME280;50528;48.514;14.394;2023-03-11T03:03:18;92182.20;;;0.55;60.46
64211;BME280;50528;48.514;14.394;2023-03-11T03:03:52;92167.20;;;0.51;60.81
64211;BME280;50528;48.514;14.394;2023-03-11T03:04:25;92182.91;;;0.58;60.29
64211;BME280;50528;48.514;14.394;2023-03-11T03:04:59;92186.29;;;0.62;59.92
64211;BME280;50528;48.514;14.394;2023-03-11T03:05:33;92182.05;;;0.57;60.28
64211;BME280;50528;48.514;14.394;2023-03-11T03:06:06;92190.75;;;0.55;60.29
64211;BME280;50528;48.514;14.394;2023-03-11T03:06:40;92195.18;;;0.59;60.03
64211;BME280;50528;48.514;14.394;2023-03-11T03:07:13;92205.34;;;0.56;59.98
64211;BME280;50528;48.514;14.394;2023-03-11T03:07:48;92183.21;;;0.61;59.33
64211;BME280;50528;48.514;14.394;2023-03-11T03:08:22;92205.19;;;0.53;59.17
64211;BME280;50528;48.514;14.394;2023-03-11T03:08:56;92190.90;;;0.58;59.16
64211;BME280;50528;48.514;14.394;2023-03-11T03:09:30;92192.22;;;0.58;58.65
64211;BME280;50528;48.514;14.394;2023-03-11T03:10:04;92181.30;;;0.51;59.09
64211;BME280;50528;48.514;14.394;2023-03-11T03:10:38;92177.13;;;0.49;59.81
64211;BME280;50528;48.514;14.394;2023-03-11T03:11:12;92200.83;;;0.52;59.38
64211;BME280;50528;48.514;14.394;2023-03-11T03:11:45;92200.50;;;0.57;58.32
64211;BME280;50528;48.514;14.394;2023-03-11T03:12:19;92189.08;;;0.59;57.72
64211;BME280;50528;48.514;14.394;2023-03-11T03:12:55;92200.25;;;0.55;58.95
64211;BME280;50528;48.514;14.394;2023-03-11T03:13:28;92176.01;;;0.55;59.10
64211;BME280;50528;48.514;14.394;2023-03-11T03:14:03;92198.29;;;0.48;59.46
64211;BME280;50528;48.514;14.394;2023-03-11T03:14:36;92178.97;;;0.49;58.86
64211;BME280;50528;48.514;14.394;2023-03-11T03:15:10;92197.03;;;0.47;59.25
64211;BME280;50528;48.514;14.394;2023-03-11T03:15:44;92176.95;;;0.47;58.79
64211;BME280;50528;48.514;14.394;2023-03-11T03:16:17;92183.46;;;0.48;58.95
64211;BME280;50528;48.514;14.394;2023-03-11T03:16:52;92182.67;;;0.42;59.36
64211;BME280;50528;48.514;14.394;2023-03-11T03:17:26;92184.97;;;0.41;59.68